Time;durP1;ratioP1;P1;durP2;ratioP2;P2;SDS_P1;SDS_P2;PMS_P1;PMS_P2;Temp;Humidity;BMP_temperature;BMP_pressure;BME280_temperature;BME280_humidity;BME280_pressure;Samples;Min_cycle;Max_cycle;Signal;HPM_P1;HPM_P2
2022/04/27 00:00:34;;;;;;;5.60;5.10;;;7.70;99.90;;;;;;5116554;28;20453;-67
2022/04/27 00:03:03;;;;;;;4.73;4.30;;;7.60;99.90;;;;;;5117527;28;20460;-67
2022/04/27 00:05:30;;;;;;;6.40;5.27;;;7.60;99.90;;;;;;5117375;28;20760;-68
2022/04/27 00:07:55;;;;;;;8.30;4.43;;;7.50;99.90;;;;;;5117549;28;20401;-67
2022/04/27 00:10:21;;;;;;;6.90;4.90;;;7.50;99.90;;;;;;5116345;28;20416;-64
2022/04/27 00:12:48;;;;;;;6.63;4.80;;;7.50;99.90;;;;;;5116584;28;20235;-65
2022/04/27 00:15:14;;;;;;;8.43;4.60;;;7.40;99.90;;;;;;5117609;28;20176;-68
2022/04/27 00:17:40;;;;;;;7.10;5.80;;;7.30;99.90;;;;;;5117527;28;20414;-64
2022/04/27 00:20:07;;;;;;;5.57;4.50;;;7.20;99.90;;;;;;5116336;28;20404;-64
2022/04/27 00:22:34;;;;;;;6.30;4.67;;;7.10;99.90;;;;;;5116946;28;20569;-68
2022/04/27 00:25:01;;;;;;;6.83;5.20;;;7.10;99.90;;;;;;5116069;28;20400;-64
2022/04/27 00:27:30;;;;;;;7.33;5.27;;;7.10;99.90;;;;;;5116680;28;20400;-67
2022/04/27 00:29:57;;;;;;;9.00;4.70;;;7.10;99.90;;;;;;5115991;28;20871;-68
2022/04/27 00:32:23;;;;;;;4.70;4.23;;;7.10;99.90;;;;;;5111310;28;20434;-64
2022/04/27 00:34:49;;;;;;;6.23;5.10;;;7.00;99.90;;;;;;5117165;28;20399;-68
2022/04/27 00:37:15;;;;;;;6.70;5.17;;;7.00;99.90;;;;;;5116720;28;20402;-67
2022/04/27 00:39:40;;;;;;;8.40;5.27;;;7.00;99.90;;;;;;5116115;28;20209;-67
2022/04/27 00:42:14;;;;;;;5.53;4.23;;;6.90;99.90;;;;;;5116516;28;20478;-68
2022/04/27 00:44:43;;;;;;;12.73;5.57;;;6.90;99.90;;;;;;5116891;28;20204;-67
2022/04/27 00:47:10;;;;;;;5.20;4.70;;;6.90;99.90;;;;;;5116532;28;20426;-68
2022/04/27 00:49:35;;;;;;;7.33;5.07;;;6.90;99.90;;;;;;5115575;28;20435;-64
2022/04/27 00:52:01;;;;;;;5.47;5.07;;;6.80;99.90;;;;;;5116192;28;20790;-68
2022/04/27 00:54:28;;;;;;;6.47;5.37;;;6.80;99.90;;;;;;5116977;28;20177;-64
2022/04/27 00:56:54;;;;;;;9.93;5.10;;;6.80;99.90;;;;;;5116298;28;20184;-64
2022/04/27 00:59:19;;;;;;;8.50;5.03;;;6.70;99.90;;;;;;5115547;28;20883;-67
2022/04/27 01:01:46;;;;;;;5.90;4.67;;;6.70;99.90;;;;;;5116251;28;20205;-68
2022/04/27 01:04:11;;;;;;;6.07;4.83;;;6.60;99.90;;;;;;5116610;28;20157;-64
2022/04/27 01:06:38;;;;;;;8.00;4.90;;;6.60;99.90;;;;;;5105365;28;20433;-66
2022/04/27 01:09:05;;;;;;;7.77;5.83;;;6.50;99.90;;;;;;5115278;28;20157;-65
2022/04/27 01:11:32;;;;;;;11.90;5.50;;;6.50;99.90;;;;;;5115981;28;20418;-64
2022/04/27 01:13:57;;;;;;;8.30;5.87;;;6.50;99.90;;;;;;5116428;28;20403;-67
2022/04/27 01:16:23;;;;;;;8.80;5.47;;;6.50;99.90;;;;;;5116096;28;20418;-68
2022/04/27 01:18:50;;;;;;;7.03;4.50;;;6.50;99.90;;;;;;5115359;28;20165;-64
2022/04/27 01:21:16;;;;;;;5.20;4.80;;;6.50;99.90;;;;;;5115689;28;20216;-65
2022/04/27 01:23:42;;;;;;;7.57;4.93;;;6.50;99.90;;;;;;5116012;28;20766;-64
2022/04/27 01:26:08;;;;;;;6.80;4.63;;;6.50;99.90;;;;;;5115954;28;20498;-64
2022/04/27 01:28:37;;;;;;;7.17;5.40;;;6.50;99.90;;;;;;5114531;28;20189;-65
2022/04/27 01:31:04;;;;;;;5.57;5.07;;;6.50;99.90;;;;;;5115993;28;20399;-64
2022/04/27 01:33:31;;;;;;;7.60;5.27;;;6.50;99.90;;;;;;5115762;28;21012;-68
2022/04/27 01:35:58;;;;;;;8.67;6.17;;;6.40;99.90;;;;;;5115922;28;20442;-67
2022/04/27 01:38:24;;;;;;;6.60;4.90;;;6.40;99.90;;;;;;5115738;28;20391;-65
2022/04/27 01:40:54;;;;;;;6.23;5.70;;;6.40;99.90;;;;;;5114822;28;20962;-67
2022/04/27 01:43:24;;;;;;;8.23;5.50;;;6.40;99.90;;;;;;5115782;28;20449;-66
2022/04/27 01:45:52;;;;;;;10.27;6.00;;;6.40;99.90;;;;;;5115432;28;20414;-67
2022/04/27 01:48:18;;;;;;;5.50;5.10;;;6.30;99.90;;;;;;5115119;28;20495;-65
2022/04/27 01:50:44;;;;;;;6.40;5.40;;;6.30;99.90;;;;;;5114013;28;20457;-65
2022/04/27 01:55:54;;;;;;;8.60;5.10;;;6.30;99.90;;;;;;5115227;28;20207;-64
2022/04/27 01:58:19;;;;;;;9.00;5.20;;;6.20;99.90;;;;;;5115421;28;20418;-64
2022/04/27 02:00:47;;;;;;;6.87;6.17;;;6.20;99.90;;;;;;5114145;28;20193;-64
2022/04/27 02:03:13;;;;;;;15.00;6.47;;;6.20;99.90;;;;;;5114583;28;20266;-65
2022/04/27 02:05:39;;;;;;;6.97;5.20;;;6.10;99.90;;;;;;5114486;28;20497;-67
2022/04/27 02:08:05;;;;;;;5.57;5.07;;;6.10;99.90;;;;;;5115133;28;20406;-68
2022/04/27 02:10:31;;;;;;;5.13;4.63;;;6.10;99.90;;;;;;5114330;28;20768;-64
2022/04/27 02:12:57;;;;;;;6.60;5.90;;;6.00;99.90;;;;;;5114923;28;20445;-64
2022/04/27 02:15:22;;;;;;;7.60;5.80;;;6.00;99.90;;;;;;5115054;28;20820;-64
2022/04/27 02:17:50;;;;;;;6.80;5.57;;;5.90;99.90;;;;;;5114683;28;20172;-64
2022/04/27 02:20:18;;;;;;;5.00;4.50;;;5.80;99.90;;;;;;5114041;28;20184;-64
2022/04/27 02:22:44;;;;;;;5.40;4.83;;;5.80;99.90;;;;;;5101357;28;20845;-65
2022/04/27 02:25:10;;;;;;;14.43;5.30;;;5.70;99.90;;;;;;5114437;28;20414;-64
2022/04/27 02:27:35;;;;;;;4.90;4.60;;;5.70;99.90;;;;;;5114536;28;20414;-65
2022/04/27 02:30:03;;;;;;;6.40;5.77;;;5.60;99.90;;;;;;5113832;28;20529;-66
2022/04/27 02:32:29;;;;;;;4.67;4.27;;;5.60;99.90;;;;;;5114447;28;20188;-64
2022/04/27 02:34:55;;;;;;;4.93;4.43;;;5.60;99.90;;;;;;5115013;28;20482;-64
2022/04/27 02:37:20;;;;;;;5.37;4.90;;;5.60;99.90;;;;;;5114581;28;20161;-64
2022/04/27 02:39:46;;;;;;;5.23;4.73;;;5.50;99.90;;;;;;5113658;28;20673;-68
2022/04/27 02:42:12;;;;;;;5.47;4.90;;;5.50;99.90;;;;;;5113763;28;20200;-64
2022/04/27 02:44:38;;;;;;;10.17;5.27;;;5.50;99.90;;;;;;5114471;28;20390;-67
2022/04/27 02:47:04;;;;;;;7.60;5.23;;;5.40;99.90;;;;;;5114479;28;20451;-66
2022/04/27 02:52:14;;;;;;;6.07;5.50;;;5.20;99.90;;;;;;5114050;28;20425;-68
2022/04/27 02:54:40;;;;;;;6.40;4.70;;;5.20;99.90;;;;;;5114168;28;20418;-65
2022/04/27 02:57:06;;;;;;;6.60;5.20;;;5.20;99.90;;;;;;5114315;28;20176;-64
2022/04/27 02:59:33;;;;;;;6.43;4.80;;;5.10;99.90;;;;;;5113207;28;20490;-64
2022/04/27 03:01:59;;;;;;;8.13;4.97;;;5.10;99.90;;;;;;5113652;28;20442;-65
2022/04/27 03:04:25;;;;;;;5.93;5.30;;;5.10;99.90;;;;;;5113981;28;20415;-65
2022/04/27 03:06:51;;;;;;;8.13;5.40;;;5.10;99.90;;;;;;5113994;28;20450;-67
2022/04/27 03:09:17;;;;;;;8.83;6.10;;;5.10;99.90;;;;;;5112205;28;20165;-64
2022/04/27 03:11:42;;;;;;;6.13;4.70;;;5.10;99.90;;;;;;5113727;28;20196;-68
2022/04/27 03:14:08;;;;;;;6.90;4.77;;;5.00;99.90;;;;;;5095213;28;20169;-68
2022/04/27 03:16:33;;;;;;;5.60;5.10;;;5.00;99.90;;;;;;5102694;28;20180;-64
2022/04/27 03:18:59;;;;;;;9.93;6.33;;;5.00;99.90;;;;;;5112739;28;20172;-68
2022/04/27 03:21:28;;;;;;;7.70;5.70;;;5.00;99.90;;;;;;5113720;28;20725;-65
2022/04/27 03:23:54;;;;;;;6.17;5.57;;;4.90;99.90;;;;;;5113999;28;20161;-67
2022/04/27 03:26:19;;;;;;;6.20;5.13;;;4.90;99.90;;;;;;5113487;28;20450;-68
2022/04/27 03:28:45;;;;;;;5.90;5.20;;;4.90;99.90;;;;;;5113015;28;20168;-64
2022/04/27 03:31:10;;;;;;;6.13;5.17;;;4.90;99.90;;;;;;5113810;28;20199;-64
2022/04/27 03:33:36;;;;;;;5.60;5.10;;;4.80;99.90;;;;;;5113762;28;20201;-64
2022/04/27 03:36:02;;;;;;;6.13;5.60;;;4.80;99.90;;;;;;5113202;28;20171;-67
2022/04/27 03:38:28;;;;;;;6.33;5.20;;;4.80;99.90;;;;;;5113434;28;20176;-72
2022/04/27 03:40:53;;;;;;;8.77;7.87;;;4.80;99.90;;;;;;5112889;28;20463;-64
2022/04/27 03:43:19;;;;;;;8.67;6.57;;;4.70;99.90;;;;;;5113745;28;20182;-67
2022/04/27 03:45:45;;;;;;;6.70;5.77;;;4.70;99.90;;;;;;5113738;28;20157;-68
2022/04/27 03:48:13;;;;;;;7.57;6.80;;;4.70;99.90;;;;;;5113886;28;20164;-65
2022/04/27 03:50:40;;;;;;;6.73;5.30;;;4.70;99.90;;;;;;5112599;28;20185;-64
2022/04/27 03:53:06;;;;;;;8.17;6.33;;;4.80;99.90;;;;;;5113173;28;20433;-67
2022/04/27 03:55:33;;;;;;;6.70;5.70;;;4.70;99.90;;;;;;5113366;28;20411;-67
2022/04/27 03:58:00;;;;;;;9.43;6.70;;;4.70;99.90;;;;;;5113756;28;20183;-66
2022/04/27 04:00:26;;;;;;;6.53;6.00;;;4.60;99.90;;;;;;5112431;28;20450;-68
2022/04/27 04:02:52;;;;;;;12.37;6.27;;;4.60;99.90;;;;;;5113510;28;20926;-64
2022/04/27 04:05:17;;;;;;;8.40;5.60;;;4.60;99.90;;;;;;5113395;28;20522;-64
2022/04/27 04:07:43;;;;;;;8.00;6.00;;;4.60;99.90;;;;;;5113489;28;20168;-66
2022/04/27 04:10:09;;;;;;;8.60;5.73;;;4.60;99.90;;;;;;5112472;28;20674;-66
2022/04/27 04:12:34;;;;;;;8.00;6.00;;;4.60;99.90;;;;;;5112922;28;20211;-66
2022/04/27 04:15:02;;;;;;;7.70;6.30;;;4.60;99.90;;;;;;5113268;28;20908;-67
2022/04/27 04:17:27;;;;;;;15.33;7.57;;;4.60;99.90;;;;;;5113558;28;20168;-66
2022/04/27 04:19:53;;;;;;;7.80;5.83;;;4.60;99.90;;;;;;5112311;28;20413;-64
2022/04/27 04:22:18;;;;;;;7.77;7.07;;;4.60;99.90;;;;;;5113318;28;20200;-67
2022/04/27 04:30:12;;;;;;;7.97;5.93;;;4.70;99.90;;;;;;5115740;28;20429;-68
2022/04/27 04:32:38;;;;;;;7.87;6.67;;;4.70;99.90;;;;;;5116933;28;20414;-67
2022/04/27 04:35:05;;;;;;;7.17;6.47;;;4.80;99.90;;;;;;5116715;28;20176;-65
2022/04/27 04:37:32;;;;;;;11.07;6.90;;;4.70;99.90;;;;;;5115713;28;20934;-64
2022/04/27 04:39:58;;;;;;;12.73;6.80;;;4.60;99.90;;;;;;5108948;28;20775;-64
2022/04/27 04:42:23;;;;;;;7.80;6.17;;;4.60;99.90;;;;;;5117087;28;20460;-64
2022/04/27 04:44:49;;;;;;;11.73;6.10;;;4.60;99.90;;;;;;5116626;28;20171;-68
2022/04/27 04:47:14;;;;;;;7.83;6.17;;;4.60;99.90;;;;;;5116202;28;20255;-64
2022/04/27 04:49:40;;;;;;;7.10;6.13;;;4.60;99.90;;;;;;5115986;28;20621;-66
2022/04/27 04:52:07;;;;;;;6.00;5.40;;;4.60;99.90;;;;;;5116629;28;20256;-67
2022/04/27 04:54:34;;;;;;;12.13;5.90;;;4.70;99.90;;;;;;5116780;28;20172;-67
2022/04/27 04:56:59;;;;;;;7.40;5.73;;;4.70;99.90;;;;;;5116434;28;20427;-68
2022/04/27 04:59:25;;;;;;;11.27;5.20;;;4.70;99.90;;;;;;5115611;28;20849;-66
2022/04/27 05:01:51;;;;;;;7.93;4.77;;;4.70;99.90;;;;;;5115655;28;20427;-66
2022/04/27 05:04:17;;;;;;;7.53;6.73;;;4.80;99.90;;;;;;5115814;28;20497;-67
2022/04/27 05:06:44;;;;;;;6.90;6.20;;;4.90;99.90;;;;;;5116400;28;20172;-64
2022/04/27 05:09:10;;;;;;;8.37;6.20;;;4.90;99.90;;;;;;5115379;28;20416;-67
2022/04/27 05:11:35;;;;;;;9.30;6.07;;;5.00;99.90;;;;;;5115920;28;20891;-64
2022/04/27 05:14:01;;;;;;;7.70;6.23;;;5.10;99.90;;;;;;5115396;28;20986;-67
2022/04/27 05:16:27;;;;;;;6.70;5.87;;;5.20;99.90;;;;;;5116116;28;20608;-65
2022/04/27 05:18:53;;;;;;;10.00;6.83;;;5.30;99.90;;;;;;5115270;28;20261;-63
2022/04/27 05:21:19;;;;;;;13.23;8.67;;;5.30;99.90;;;;;;5115287;28;20454;-65
2022/04/27 05:23:44;;;;;;;12.33;9.30;;;5.40;99.90;;;;;;5116206;28;20941;-61
2022/04/27 05:26:11;;;;;;;14.90;9.93;;;5.50;99.90;;;;;;5115925;28;20172;-62
2022/04/27 05:34:05;;;;;;;9.17;7.47;;;5.80;99.90;;;;;;5116373;28;20446;-61
2022/04/27 05:36:31;;;;;;;9.83;7.20;;;5.90;99.90;;;;;;5115741;28;20422;-62
2022/04/27 05:38:56;;;;;;;10.60;6.13;;;6.00;99.90;;;;;;5113681;28;20214;-62
2022/04/27 05:41:22;;;;;;;10.07;7.33;;;6.10;99.90;;;;;;5115254;28;20203;-64
2022/04/27 05:43:48;;;;;;;8.53;6.00;;;6.20;99.90;;;;;;5115872;28;20199;-62
2022/04/27 05:46:13;;;;;;;7.30;5.37;;;6.30;99.90;;;;;;5115507;28;20168;-62
2022/04/27 05:48:39;;;;;;;7.20;5.57;;;6.30;99.90;;;;;;5114932;28;20618;-62
2022/04/27 05:51:05;;;;;;;6.33;5.77;;;6.40;99.90;;;;;;5115448;28;20185;-62
2022/04/27 05:53:31;;;;;;;11.50;6.00;;;6.50;99.90;;;;;;5115443;28;20243;-65
2022/04/27 05:55:57;;;;;;;9.60;6.60;;;6.60;99.90;;;;;;5114577;28;20418;-62
2022/04/27 05:58:22;;;;;;;12.10;6.03;;;6.70;99.90;;;;;;5114934;28;20545;-62
2022/04/27 06:00:49;;;;;;;14.40;6.43;;;6.80;99.90;;;;;;5095666;28;20199;-62
2022/04/27 06:03:15;;;;;;;5.93;5.30;;;6.90;99.90;;;;;;5113343;28;20203;-68
2022/04/27 06:05:41;;;;;;;6.90;6.20;;;7.00;99.90;;;;;;5114288;28;20407;-64
2022/04/27 06:08:07;;;;;;;9.40;6.20;;;7.10;99.90;;;;;;5112389;28;20603;-68
2022/04/27 06:10:32;;;;;;;9.67;5.40;;;7.20;99.90;;;;;;5114057;28;20533;-67
2022/04/27 06:12:58;;;;;;;7.77;5.90;;;7.30;99.90;;;;;;5114784;28;20429;-65
2022/04/27 06:15:24;;;;;;;8.60;5.90;;;7.40;99.90;;;;;;5114890;28;20209;-65
2022/04/27 06:17:52;;;;;;;13.80;6.43;;;7.40;99.90;;;;;;5115044;28;20184;-65
2022/04/27 06:20:18;;;;;;;8.03;6.07;;;7.50;99.90;;;;;;5114105;28;20174;-67
2022/04/27 06:22:43;;;;;;;5.70;5.20;;;7.60;99.90;;;;;;5115023;28;20421;-64
2022/04/27 06:25:09;;;;;;;7.10;5.30;;;7.60;99.90;;;;;;5115034;28;20162;-68
2022/04/27 06:27:35;;;;;;;7.07;5.67;;;7.70;99.90;;;;;;5114799;28;20226;-68
2022/04/27 06:30:01;;;;;;;11.63;5.53;;;7.70;99.90;;;;;;5114154;28;20882;-65
2022/04/27 06:32:30;;;;;;;9.30;4.93;;;7.90;99.90;;;;;;5114402;28;20200;-64
2022/04/27 06:34:58;;;;;;;15.00;5.90;;;8.00;99.90;;;;;;5114863;28;20165;-68
2022/04/27 06:37:23;;;;;;;6.03;5.50;;;8.10;99.90;;;;;;5114686;28;20376;-64
2022/04/27 06:39:49;;;;;;;14.50;5.40;;;8.20;99.90;;;;;;5113910;28;20408;-66
2022/04/27 06:42:15;;;;;;;6.63;4.30;;;8.20;99.90;;;;;;5114483;28;20208;-67
2022/04/27 06:44:40;;;;;;;5.67;4.10;;;8.30;99.90;;;;;;5114482;28;20163;-64
2022/04/27 06:47:06;;;;;;;5.47;5.00;;;8.40;99.90;;;;;;5114474;28;20369;-65
2022/04/27 06:49:32;;;;;;;14.60;4.40;;;8.40;99.90;;;;;;5113424;28;20530;-68
2022/04/27 06:51:58;;;;;;;8.90;5.30;;;8.40;99.90;;;;;;5114427;28;20267;-65
2022/04/27 06:54:23;;;;;;;8.00;5.53;;;8.50;99.90;;;;;;5114575;28;20194;-65
2022/04/27 06:56:49;;;;;;;5.63;4.33;;;8.50;99.90;;;;;;5114048;28;20415;-68
2022/04/27 06:59:14;;;;;;;4.87;4.40;;;8.70;99.90;;;;;;5113689;28;20187;-68
2022/04/27 07:01:40;;;;;;;7.70;5.00;;;8.70;99.90;;;;;;5113914;28;20736;-67
2022/04/27 07:04:09;;;;;;;6.50;4.00;;;8.70;99.90;;;;;;5113958;28;20179;-66
2022/04/27 07:06:36;;;;;;;11.53;6.07;;;8.70;99.90;;;;;;5113834;28;20179;-67
2022/04/27 07:09:02;;;;;;;10.53;5.00;;;8.80;99.90;;;;;;5113329;28;20446;-65
2022/04/27 07:11:28;;;;;;;7.07;5.20;;;9.00;99.90;;;;;;5114098;28;20402;-67
2022/04/27 07:13:56;;;;;;;6.67;4.50;;;9.00;99.90;;;;;;5095897;28;20420;-67
2022/04/27 07:16:22;;;;;;;15.20;5.30;;;9.00;99.90;;;;;;5114053;28;20253;-68
2022/04/27 07:18:50;;;;;;;14.37;5.63;;;9.00;99.90;;;;;;5113505;28;20417;-68
2022/04/27 07:21:15;;;;;;;8.03;5.10;;;9.10;99.90;;;;;;5113972;28;20446;-67
2022/04/27 07:23:41;;;;;;;10.57;5.03;;;9.20;99.90;;;;;;5113482;28;20403;-65
2022/04/27 07:26:08;;;;;;;11.90;5.40;;;9.20;99.90;;;;;;5113783;28;20172;-64
2022/04/27 07:28:35;;;;;;;5.33;4.70;;;9.30;99.90;;;;;;5113224;28;20245;-68
2022/04/27 07:31:01;;;;;;;6.33;5.10;;;9.50;99.90;;;;;;5114160;28;20399;-68
2022/04/27 07:33:27;;;;;;;5.30;4.43;;;9.60;99.90;;;;;;5113753;28;20435;-64
2022/04/27 07:35:52;;;;;;;5.20;4.70;;;9.70;99.90;;;;;;5095791;28;20530;-64
2022/04/27 07:38:18;;;;;;;10.20;6.40;;;9.70;99.90;;;;;;5113671;28;20188;-69
2022/04/27 07:40:43;;;;;;;8.90;5.47;;;9.90;99.90;;;;;;5113098;28;20259;-68
2022/04/27 07:43:09;;;;;;;8.83;5.03;;;9.90;99.90;;;;;;5112202;28;20664;-67
2022/04/27 07:45:35;;;;;;;7.33;5.37;;;10.10;99.90;;;;;;5113942;28;20200;-68
2022/04/27 07:48:00;;;;;;;10.43;5.13;;;10.20;99.90;;;;;;5095670;28;20179;-64
2022/04/27 07:50:26;;;;;;;9.00;5.00;;;10.30;99.90;;;;;;5113025;28;20215;-65
2022/04/27 07:52:51;;;;;;;6.60;5.17;;;10.30;99.90;;;;;;5113752;28;20539;-69
2022/04/27 07:55:17;;;;;;;11.53;4.60;;;10.40;99.90;;;;;;5095462;28;20247;-64
2022/04/27 07:57:45;;;;;;;7.00;4.50;;;10.50;99.90;;;;;;5113672;28;20185;-64
2022/04/27 08:00:12;;;;;;;8.27;5.30;;;10.50;99.90;;;;;;5112870;28;20161;-64
2022/04/27 08:02:38;;;;;;;4.20;3.83;;;10.60;99.90;;;;;;5116732;28;20400;-67
2022/04/27 08:05:05;;;;;;;6.73;4.83;;;10.80;99.90;;;;;;5117943;28;20566;-67
2022/04/27 08:07:35;;;;;;;7.10;4.20;;;10.90;99.90;;;;;;5117687;28;20398;-67
2022/04/27 08:10:07;;;;;;;9.20;6.33;;;10.90;99.90;;;;;;5117000;28;20486;-64
2022/04/27 08:12:33;;;;;;;9.43;4.13;;;10.90;99.90;;;;;;5117470;28;20474;-69
2022/04/27 08:14:58;;;;;;;6.00;4.80;;;11.00;99.90;;;;;;5117472;28;20485;-68
2022/04/27 08:17:24;;;;;;;6.40;5.20;;;11.10;99.90;;;;;;5117612;28;20875;-68
2022/04/27 08:21:13;;;;;;;8.67;4.20;;;11.20;99.90;;;;;;5116734;28;20169;-65
2022/04/27 08:22:35;;;;;;;8.07;4.67;;;11.30;99.90;;;;;;5116807;28;20253;-65
2022/04/27 08:25:01;;;;;;;8.30;4.27;;;11.30;99.90;;;;;;5099282;28;20764;-68
2022/04/27 08:27:26;;;;;;;6.23;3.77;;;11.30;99.90;;;;;;5117440;28;20180;-64
2022/04/27 08:29:52;;;;;;;6.93;4.57;;;11.30;99.90;;;;;;5102947;28;20668;-64
2022/04/27 08:32:17;;;;;;;4.90;4.40;;;11.40;99.90;;;;;;5117081;28;20230;-68
2022/04/27 08:34:43;;;;;;;6.90;4.93;;;11.60;99.90;;;;;;5116758;28;20669;-65
2022/04/27 08:37:08;;;;;;;7.73;4.37;;;11.60;99.90;;;;;;5116603;28;20169;-64
2022/04/27 08:39:34;;;;;;;9.90;4.30;;;11.80;99.90;;;;;;5115806;28;20215;-64
2022/04/27 08:42:00;;;;;;;7.33;4.97;;;12.00;99.90;;;;;;5117095;28;20200;-64
2022/04/27 08:44:25;;;;;;;6.00;4.13;;;12.10;99.90;;;;;;5116781;28;20177;-64
2022/04/27 08:46:52;;;;;;;6.90;5.03;;;12.40;99.90;;;;;;5116997;28;20176;-69
2022/04/27 08:49:18;;;;;;;4.63;4.33;;;12.30;99.90;;;;;;5115668;28;20255;-68
2022/04/27 08:51:43;;;;;;;7.70;4.30;;;12.30;99.90;;;;;;5116826;28;20534;-68
2022/04/27 08:54:09;;;;;;;4.67;3.73;;;12.50;97.90;;;;;;5102919;28;20180;-64
2022/04/27 08:56:35;;;;;;;4.30;4.00;;;12.70;99.90;;;;;;5116890;28;20172;-67
2022/04/27 08:59:02;;;;;;;5.10;4.20;;;12.90;99.90;;;;;;5115316;28;20204;-69
2022/04/27 09:01:28;;;;;;;7.40;4.73;;;13.10;99.90;;;;;;5115377;28;20450;-65
2022/04/27 09:04:14;;;;;;;4.33;4.03;;;13.10;96.10;;;;;;5116218;28;20429;-64
2022/04/27 09:06:41;;;;;;;8.30;4.07;;;13.40;97.60;;;;;;5114610;28;20196;-67
2022/04/27 09:09:13;;;;;;;6.57;4.37;;;13.50;93.30;;;;;;5114398;28;20389;-65
2022/04/27 09:11:39;;;;;;;5.33;4.67;;;13.40;93.30;;;;;;5116167;28;20468;-67
2022/04/27 09:14:07;;;;;;;5.43;4.50;;;13.40;93.30;;;;;;5114546;28;20430;-65
2022/04/27 09:22:26;;;;;;;8.73;4.30;;;14.20;85.20;;;;;;5114771;28;20533;-65
2022/04/27 09:24:53;;;;;;;5.97;4.87;;;14.50;90.90;;;;;;5115755;28;20410;-65
2022/04/27 09:27:24;;;;;;;5.77;3.57;;;14.80;87.00;;;;;;5115600;28;21223;-68
2022/04/27 09:30:07;;;;;;;5.87;4.83;;;15.00;90.10;;;;;;5105604;28;20426;-64
2022/04/27 09:32:34;;;;;;;4.70;4.13;;;15.20;83.00;;;;;;5107258;28;20409;-65
2022/04/27 09:35:02;;;;;;;10.90;5.30;;;15.60;72.40;;;;;;5115686;28;20369;-69
2022/04/27 09:37:30;;;;;;;5.43;4.93;;;16.00;74.40;;;;;;5114400;28;20899;-64
2022/04/27 09:40:06;;;;;;;7.00;5.20;;;16.10;56.20;;;;;;5096670;28;20406;-65
2022/04/27 09:42:36;;;;;;;5.27;4.13;;;16.00;47.60;;;;;;5095448;28;20794;-65
2022/04/27 09:45:20;;;;;;;8.40;4.20;;;16.20;50.00;;;;;;5085125;28;20943;-65
2022/04/27 09:47:53;;;;;;;5.80;5.23;;;16.80;53.30;;;;;;5115764;28;20422;-65
2022/04/27 09:50:19;;;;;;;4.80;4.37;;;17.10;47.70;;;;;;5113527;28;20393;-65
2022/04/27 09:52:45;;;;;;;4.50;4.03;;;17.30;43.30;;;;;;5115264;28;20892;-68
2022/04/27 09:55:11;;;;;;;5.30;4.20;;;17.60;46.90;;;;;;5114618;28;20172;-70
2022/04/27 09:57:41;;;;;;;5.73;5.23;;;17.60;47.10;;;;;;5114564;28;20954;-68
2022/04/27 10:00:09;;;;;;;5.37;4.70;;;17.70;38.70;;;;;;5103697;28;20420;-65
2022/04/27 10:02:37;;;;;;;4.67;4.27;;;17.90;37.00;;;;;;5103950;28;20482;-65
2022/04/27 10:05:04;;;;;;;4.40;4.00;;;18.00;29.20;;;;;;5105640;28;20480;-65
2022/04/27 10:07:32;;;;;;;4.63;3.83;;;17.60;17.60;;;;;;5095066;28;20431;-68
2022/04/27 10:09:58;;;;;;;7.87;4.43;;;17.20;11.50;;;;;;5108093;28;20431;-69
2022/04/27 10:12:24;;;;;;;6.07;4.20;;;16.70;7.60;;;;;;5078860;28;20478;-65
2022/04/27 10:14:50;;;;;;;4.50;4.10;;;16.50;16.30;;;;;;5115297;28;20486;-68
2022/04/27 10:17:16;;;;;;;6.10;4.83;;;17.00;14.00;;;;;;5114756;28;20177;-65
2022/04/27 10:19:49;;;;;;;6.50;3.80;;;17.80;16.20;;;;;;5114203;28;20167;-68
2022/04/27 10:22:31;;;;;;;4.30;4.00;;;18.20;8.40;;;;;;5114599;28;20461;-65
2022/04/27 10:25:04;;;;;;;5.50;3.93;;;18.10;5.30;;;;;;5114573;28;20394;-66
2022/04/27 10:27:33;;;;;;;5.63;4.50;;;18.40;6.20;;;;;;5101256;28;20414;-66
2022/04/27 10:30:00;;;;;;;6.47;4.33;;;19.00;7.10;;;;;;5101919;28;20434;-66
2022/04/27 10:32:36;;;;;;;4.50;4.10;;;18.90;3.50;;;;;;5114266;28;20434;-69
2022/04/27 10:35:30;;;;;;;5.23;4.80;;;18.30;1.00;;;;;;5114800;28;20455;-69
2022/04/27 10:38:02;;;;;;;6.17;3.93;;;18.30;1.00;;;;;;5114288;28;21047;-65
2022/04/27 10:40:29;;;;;;;5.87;4.10;;;19.00;1.00;;;;;;5113464;28;20442;-70
2022/04/27 10:43:14;;;;;;;8.57;4.00;;;19.10;1.00;;;;;;5114608;28;20452;-69
2022/04/27 10:45:45;;;;;;;6.63;5.43;;;19.80;4.60;;;;;;5113588;28;20407;-65
2022/04/27 10:48:17;;;;;;;6.20;5.30;;;20.50;1.40;;;;;;5114932;28;20387;-65
2022/04/27 10:51:09;;;;;;;6.50;5.03;;;20.70;1.00;;;;;;5113377;28;20808;-70
2022/04/27 10:53:42;;;;;;;5.63;4.50;;;20.10;1.00;;;;;;5110702;28;20458;-70
2022/04/27 10:56:22;;;;;;;7.03;4.90;;;19.90;1.00;;;;;;5114169;28;20927;-65
2022/04/27 10:58:48;;;;;;;5.47;4.77;;;19.90;1.00;;;;;;5113349;28;20490;-70
2022/04/27 11:01:19;;;;;;;5.73;4.63;;;19.60;1.00;;;;;;5113926;28;20458;-69
2022/04/27 11:04:14;;;;;;;8.03;5.20;;;18.80;1.00;;;;;;5096109;28;20717;-69
2022/04/27 11:07:16;;;;;;;5.53;5.03;;;18.10;1.00;;;;;;5095384;28;20514;-65
2022/04/27 11:09:54;;;;;;;5.60;5.00;;;17.90;1.00;;;;;;5099794;28;20838;-69
2022/04/27 11:12:20;;;;;;;7.57;5.10;;;18.30;1.00;;;;;;5113843;28;20444;-65
2022/04/27 11:14:47;;;;;;;11.10;5.47;;;18.70;1.00;;;;;;5114176;28;20403;-69
2022/04/27 11:17:26;;;;;;;8.27;5.13;;;18.30;1.00;;;;;;5114002;28;20188;-70
2022/04/27 11:19:52;;;;;;;5.20;4.70;;;17.90;1.00;;;;;;5113213;28;20402;-66
2022/04/27 11:22:18;;;;;;;5.50;4.57;;;17.70;1.00;;;;;;5100491;28;20469;-70
2022/04/27 11:24:48;;;;;;;7.57;5.53;;;17.40;1.00;;;;;;5095788;28;20415;-65
2022/04/27 11:27:26;;;;;;;9.93;5.30;;;17.40;1.00;;;;;;5113768;28;20198;-69
2022/04/27 11:29:53;;;;;;;7.33;5.30;;;16.90;1.00;;;;;;5112759;28;20410;-66
2022/04/27 11:32:19;;;;;;;4.50;4.20;;;16.80;1.00;;;;;;5113543;28;20485;-64
2022/04/27 11:34:48;;;;;;;4.97;4.47;;;16.90;1.00;;;;;;5113563;28;20450;-65
2022/04/27 11:37:19;;;;;;;7.10;4.87;;;16.90;1.00;;;;;;5113079;28;20252;-67
2022/04/27 11:39:46;;;;;;;7.00;4.97;;;16.90;1.00;;;;;;5112469;28;20471;-70
2022/04/27 11:42:13;;;;;;;6.23;4.90;;;16.80;1.00;;;;;;5096326;28;20463;-69
2022/04/27 11:44:40;;;;;;;6.70;4.97;;;16.60;1.00;;;;;;5113979;28;20403;-70
2022/04/27 11:47:28;;;;;;;5.17;4.67;;;16.50;1.00;;;;;;5113438;28;20518;-65
2022/04/27 11:49:58;;;;;;;6.50;4.90;;;16.50;1.00;;;;;;5112806;28;20398;-65
2022/04/27 11:52:24;;;;;;;6.10;4.70;;;16.50;1.00;;;;;;5113220;28;20449;-66
2022/04/27 11:54:50;;;;;;;10.70;4.73;;;16.60;1.00;;;;;;5114096;28;20454;-69
2022/04/27 11:57:21;;;;;;;5.10;4.60;;;16.60;1.00;;;;;;5112860;28;20863;-70
2022/04/27 11:59:48;;;;;;;7.07;5.50;;;16.40;1.00;;;;;;5112743;28;20434;-65
2022/04/27 12:02:19;;;;;;;6.20;5.20;;;16.30;1.00;;;;;;5112678;28;20450;-67
2022/04/27 12:04:45;;;;;;;6.10;5.13;;;17.60;1.00;;;;;;5113518;28;20423;-69
2022/04/27 12:07:18;;;;;;;5.10;4.70;;;19.40;1.00;;;;;;5112664;28;20419;-69
2022/04/27 12:10:02;;;;;;;8.60;4.47;;;20.20;1.00;;;;;;5112687;28;20169;-65
2022/04/27 12:12:31;;;;;;;6.30;4.50;;;19.90;1.00;;;;;;5113086;28;20437;-66
2022/04/27 12:15:02;;;;;;;4.87;4.47;;;19.30;1.00;;;;;;5113689;28;20407;-69
2022/04/27 12:17:51;;;;;;;8.87;4.80;;;19.10;1.00;;;;;;5112792;28;20509;-69
2022/04/27 12:20:25;;;;;;;4.90;3.87;;;19.20;1.00;;;;;;5112388;28;20394;-69
2022/04/27 12:22:56;;;;;;;7.30;4.30;;;20.30;1.00;;;;;;5113377;28;20856;-65
2022/04/27 12:25:55;;;;;;;6.30;4.57;;;20.10;1.00;;;;;;5113351;28;20474;-66
2022/04/27 12:28:26;;;;;;;5.17;3.90;;;19.50;1.00;;;;;;5089916;28;20441;-72
2022/04/27 12:30:57;;;;;;;4.10;3.80;;;19.50;1.00;;;;;;5112437;28;20559;-65
2022/04/27 12:33:26;;;;;;;6.33;4.23;;;19.60;1.00;;;;;;5113084;28;20841;-70
2022/04/27 12:38:54;;;;;;;9.23;4.30;;;20.90;1.00;;;;;;5112525;28;20394;-71
2022/04/27 12:41:41;;;;;;;4.57;4.17;;;21.40;1.00;;;;;;5112902;28;20464;-70
2022/04/27 12:44:09;;;;;;;4.40;4.00;;;21.90;1.00;;;;;;5113108;28;20482;-69
2022/04/27 12:46:35;;;;;;;4.93;3.70;;;21.60;1.00;;;;;;5112698;28;20447;-69
2022/04/27 12:49:08;;;;;;;4.10;3.70;;;21.10;1.00;;;;;;5116003;28;20489;-69
2022/04/27 12:51:37;;;;;;;5.27;3.23;;;20.70;1.00;;;;;;5115821;28;20878;-69
2022/04/27 12:54:03;;;;;;;5.73;4.60;;;20.40;1.00;;;;;;5116513;28;20430;-70
2022/04/27 12:56:33;;;;;;;8.13;3.70;;;19.80;1.00;;;;;;5116075;28;20418;-70
2022/04/27 12:59:11;;;;;;;5.10;3.77;;;18.80;1.00;;;;;;5115515;28;20188;-66
2022/04/27 13:01:37;;;;;;;4.37;4.00;;;18.50;1.00;;;;;;5115427;28;20450;-65
2022/04/27 13:04:03;;;;;;;5.73;3.60;;;19.20;1.00;;;;;;5116709;28;20409;-69
2022/04/27 13:06:32;;;;;;;4.70;3.90;;;19.10;1.00;;;;;;5116304;28;20414;-70
2022/04/27 13:11:56;;;;;;;7.77;4.50;;;17.80;1.00;;;;;;5116498;28;20429;-69
2022/04/27 13:14:26;;;;;;;4.97;4.03;;;18.00;1.00;;;;;;5115215;28;20410;-70
2022/04/27 13:16:54;;;;;;;4.13;3.77;;;18.00;1.00;;;;;;5116360;28;20407;-66
2022/04/27 13:19:20;;;;;;;4.23;3.60;;;18.20;1.00;;;;;;5114495;28;20422;-69
2022/04/27 13:21:45;;;;;;;4.63;3.43;;;18.70;1.00;;;;;;5116202;28;20819;-66
2022/04/27 13:24:11;;;;;;;4.50;3.03;;;19.40;1.00;;;;;;5115903;28;20414;-70